Time;durP1;ratioP1;P1;durP2;ratioP2;P2;SDS_P1;SDS_P2;PMS_P1;PMS_P2;Temp;Humidity;BMP_temperature;BMP_pressure;BME280_temperature;BME280_humidity;BME280_pressure;Samples;Min_cycle;Max_cycle;Signal;HPM_P1;HPM_P2
2021/11/16 00:03:36;;;;;;;;;;;4.50;99.90;;;;;;8428295;28;19961;-63
2021/11/16 00:07:36;;;;;;;;;;;4.80;99.90;;;;;;8428113;28;19991;-63
2021/11/16 00:11:37;;;;;;;;;;;4.70;99.90;;;;;;8427748;28;19967;-64
2021/11/16 00:15:41;;;;;;;;;;;4.50;99.90;;;;;;8427885;28;19991;-62
2021/11/16 00:19:42;;;;;;;;;;;4.50;99.90;;;;;;8426527;28;19919;-63
2021/11/16 00:23:43;;;;;;;;;;;4.60;99.90;;;;;;8427619;28;19953;-63
2021/11/16 00:27:44;;;;;;;;;;;4.60;99.90;;;;;;8415909;28;19944;-64
2021/11/16 00:31:44;;;;;;;;;;;4.70;99.90;;;;;;8392178;28;19915;-63
2021/11/16 00:35:45;;;;;;;;;;;4.60;99.90;;;;;;8393626;28;20294;-63
2021/11/16 00:39:45;;;;;;;;;;;4.50;99.90;;;;;;8393404;28;19912;-64
2021/11/16 00:43:46;;;;;;;;;;;4.50;99.90;;;;;;8393097;28;19958;-64
2021/11/16 00:47:46;;;;;;;;;;;4.50;99.90;;;;;;8393412;28;19908;-63
2021/11/16 00:51:47;;;;;;;;;;;4.50;99.90;;;;;;8393234;28;19952;-63
2021/11/16 00:55:48;;;;;;;;;;;4.40;99.90;;;;;;8393630;28;19908;-64
2021/11/16 00:59:49;;;;;;;;;;;4.40;99.90;;;;;;8392717;28;19922;-63
2021/11/16 01:03:49;;;;;;;;;;;4.30;99.90;;;;;;8393133;28;19915;-63
2021/11/16 01:07:50;;;;;;;;;;;4.30;99.90;;;;;;8393800;28;19916;-64
2021/11/16 01:11:50;;;;;;;;;;;4.20;99.90;;;;;;8437641;22;20089;-65
2021/11/16 01:15:51;;;;;;;;;;;4.40;99.90;;;;;;8426532;28;19915;-64
2021/11/16 01:19:52;;;;;;;;;;;4.30;99.90;;;;;;8425939;28;20018;-65
2021/11/16 01:23:53;;;;;;;;;;;4.50;99.90;;;;;;8426583;28;19908;-65
2021/11/16 01:28:01;;;;;;;;;;;4.30;99.90;;;;;;8395048;28;19909;-65
2021/11/16 01:32:01;;;;;;;;;;;4.30;99.90;;;;;;8399610;28;19912;-65
2021/11/16 01:36:02;;;;;;;;;;;4.30;99.90;;;;;;8381522;28;19934;-64
2021/11/16 01:40:07;;;;;;;;;;;4.30;99.90;;;;;;8398633;28;19920;-65
2021/11/16 01:44:07;;;;;;;;;;;4.10;99.90;;;;;;8398315;28;19908;-64
2021/11/16 01:48:09;;;;;;;;;;;4.10;99.90;;;;;;8398668;28;20046;-65
2021/11/16 01:52:09;;;;;;;;;;;4.20;99.90;;;;;;8398444;28;19912;-65
2021/11/16 01:56:10;;;;;;;;;;;4.20;99.90;;;;;;8398689;28;20290;-65
2021/11/16 02:00:13;;;;;;;;;;;4.20;99.90;;;;;;8412098;28;19919;-65
2021/11/16 02:04:14;;;;;;;;;;;4.10;99.90;;;;;;8431893;28;19919;-64
2021/11/16 02:08:15;;;;;;;;;;;4.30;99.90;;;;;;8413625;28;20003;-64
2021/11/16 02:12:16;;;;;;;;;;;4.30;99.90;;;;;;8431468;28;19916;-65
2021/11/16 02:16:17;;;;;;;;;;;4.20;99.90;;;;;;8431875;28;19954;-64
2021/11/16 02:20:17;;;;;;;;;;;4.10;99.90;;;;;;8431166;28;19963;-65
2021/11/16 02:24:18;;;;;;;;;;;4.00;99.90;;;;;;8431207;28;20317;-65
2021/11/16 02:28:19;;;;;;;;;;;4.20;99.90;;;;;;8412890;28;19944;-64
2021/11/16 02:32:19;;;;;;;;;;;4.20;99.90;;;;;;8430696;28;19910;-64
2021/11/16 02:36:21;;;;;;;;;;;4.10;99.90;;;;;;8431067;28;19931;-64
2021/11/16 02:40:22;;;;;;;;;;;4.20;99.90;;;;;;8429681;28;19924;-65
2021/11/16 02:44:23;;;;;;;;;;;4.30;99.90;;;;;;8430556;28;19908;-64
2021/11/16 02:48:23;;;;;;;;;;;4.40;99.90;;;;;;8412147;28;19915;-65
2021/11/16 02:52:24;;;;;;;;;;;4.30;99.90;;;;;;8430232;28;19908;-65
2021/11/16 02:56:25;;;;;;;;;;;4.20;99.90;;;;;;8430486;28;19919;-65
2021/11/16 03:00:25;;;;;;;;;;;4.40;99.90;;;;;;8429861;28;20158;-65
2021/11/16 03:04:26;;;;;;;;;;;4.20;99.90;;;;;;8430395;28;19955;-64
2021/11/16 03:08:26;;;;;;;;;;;4.20;99.90;;;;;;8429870;28;19947;-64
2021/11/16 03:12:28;;;;;;;;;;;4.10;99.90;;;;;;8429434;28;19980;-64
2021/11/16 03:16:28;;;;;;;;;;;4.10;99.90;;;;;;8428555;28;19908;-65
2021/11/16 03:20:29;;;;;;;;;;;4.00;99.90;;;;;;8429137;28;20282;-65
2021/11/16 03:24:33;;;;;;;;;;;4.30;99.90;;;;;;8429522;28;20289;-65
2021/11/16 03:28:38;;;;;;;;;;;4.40;99.90;;;;;;8428989;28;19953;-65
2021/11/16 03:32:38;;;;;;;;;;;4.30;99.90;;;;;;8428961;28;19912;-65
2021/11/16 03:36:39;;;;;;;;;;;4.30;99.90;;;;;;8428953;28;19922;-65
2021/11/16 03:40:39;;;;;;;;;;;4.20;99.90;;;;;;8428700;28;19935;-65
2021/11/16 03:44:40;;;;;;;;;;;4.10;99.90;;;;;;8428502;28;19908;-65
2021/11/16 03:48:40;;;;;;;;;;;4.20;99.90;;;;;;8428391;28;19995;-64
2021/11/16 03:52:43;;;;;;;;;;;4.30;99.90;;;;;;8410391;28;20354;-65
2021/11/16 03:56:43;;;;;;;;;;;4.20;99.90;;;;;;8428684;28;19908;-65
2021/11/16 04:00:49;;;;;;;;;;;4.30;99.90;;;;;;8428026;28;19912;-64
2021/11/16 04:04:54;;;;;;;;;;;4.50;99.90;;;;;;8428107;28;19914;-65
2021/11/16 04:08:54;;;;;;;;;;;4.40;99.90;;;;;;8423996;28;19924;-65
2021/11/16 04:12:55;;;;;;;;;;;4.30;99.90;;;;;;8427071;28;20374;-65
2021/11/16 04:16:56;;;;;;;;;;;4.20;99.90;;;;;;8409801;28;19931;-64
2021/11/16 04:20:57;;;;;;;;;;;4.10;99.90;;;;;;8427399;28;19958;-65
2021/11/16 04:24:59;;;;;;;;;;;4.40;99.90;;;;;;8428026;28;20212;-65
2021/11/16 04:28:59;;;;;;;;;;;4.30;99.90;;;;;;8405314;28;20189;-65
2021/11/16 04:33:01;;;;;;;;;;;4.40;99.90;;;;;;8393769;28;20306;-65
2021/11/16 04:37:01;;;;;;;;;;;4.40;99.90;;;;;;8375499;28;20321;-65
2021/11/16 04:41:03;;;;;;;;;;;4.50;99.90;;;;;;8397553;28;20018;-64
2021/11/16 04:45:05;;;;;;;;;;;4.40;99.90;;;;;;8406845;28;19919;-65
2021/11/16 04:49:14;;;;;;;;;;;4.40;99.90;;;;;;8421712;28;19942;-65
2021/11/16 05:06:02;;;;;;;;;;;4.40;99.90;;;;;;8393016;28;20308;-65
2021/11/16 05:10:04;;;;;;;;;;;4.50;99.90;;;;;;8391576;28;19920;-64
2021/11/16 05:14:05;;;;;;;;;;;4.40;99.90;;;;;;8393250;28;19912;-65
2021/11/16 05:18:06;;;;;;;;;;;4.40;99.90;;;;;;8404148;28;20003;-65
2021/11/16 05:22:07;;;;;;;;;;;4.40;99.90;;;;;;8397287;28;20309;-65
2021/11/16 05:26:07;;;;;;;;;;;4.30;99.90;;;;;;8392758;28;19908;-65
2021/11/16 05:30:09;;;;;;;;;;;4.60;99.90;;;;;;8396854;28;19938;-64
2021/11/16 05:34:10;;;;;;;;;;;4.50;99.90;;;;;;8411930;28;19920;-64
2021/11/16 05:38:23;;;;;;;;;;;4.40;99.90;;;;;;8408578;28;20617;-66
2021/11/16 05:42:24;;;;;;;;;;;4.30;99.90;;;;;;8399983;28;20382;-65
2021/11/16 05:46:24;;;;;;;;;;;4.30;99.90;;;;;;8392300;28;19916;-65
2021/11/16 05:50:25;;;;;;;;;;;4.50;99.90;;;;;;8405588;28;19931;-65
2021/11/16 05:54:29;;;;;;;;;;;4.40;99.90;;;;;;8412134;28;20332;-65
2021/11/16 05:58:30;;;;;;;;;;;4.30;99.90;;;;;;8409877;28;19912;-65
2021/11/16 06:02:30;;;;;;;;;;;4.40;99.90;;;;;;8390463;28;20074;-65
2021/11/16 06:06:31;;;;;;;;;;;4.30;99.90;;;;;;8389080;28;20090;-64
2021/11/16 06:10:32;;;;;;;;;;;4.30;99.90;;;;;;8389121;28;20014;-65
2021/11/16 06:14:32;;;;;;;;;;;4.40;99.90;;;;;;8390337;28;19951;-64
2021/11/16 06:18:33;;;;;;;;;;;4.40;99.90;;;;;;8378516;28;19916;-65
2021/11/16 06:22:33;;;;;;;;;;;4.40;99.90;;;;;;8379785;28;19912;-64
2021/11/16 06:26:34;;;;;;;;;;;4.40;99.90;;;;;;8380470;28;19936;-65
2021/11/16 06:30:35;;;;;;;;;;;4.40;99.90;;;;;;8399109;28;20306;-64
2021/11/16 06:34:36;;;;;;;;;;;4.40;99.90;;;;;;8416517;28;19919;-64
2021/11/16 06:38:36;;;;;;;;;;;4.40;99.90;;;;;;8430285;28;19912;-65
2021/11/16 06:42:37;;;;;;;;;;;4.40;99.90;;;;;;8427898;28;20030;-65
2021/11/16 06:46:38;;;;;;;;;;;4.30;99.90;;;;;;8418734;28;20420;-64
2021/11/16 06:50:38;;;;;;;;;;;4.40;99.90;;;;;;8423656;28;19916;-65
2021/11/16 06:54:39;;;;;;;;;;;4.30;99.90;;;;;;8430561;28;20285;-65
2021/11/16 06:58:39;;;;;;;;;;;4.30;99.90;;;;;;8405147;28;19919;-65
2021/11/16 07:02:40;;;;;;;;;;;4.30;99.90;;;;;;8429458;28;19974;-65
2021/11/16 07:06:42;;;;;;;;;;;4.40;99.90;;;;;;8429923;28;19915;-65
2021/11/16 07:10:43;;;;;;;;;;;4.40;99.90;;;;;;8447122;22;19928;-64
2021/11/16 07:14:44;;;;;;;;;;;4.40;99.90;;;;;;8411168;28;20382;-65
2021/11/16 07:18:52;;;;;;;;;;;4.50;99.90;;;;;;8411776;28;19909;-64
2021/11/16 07:22:52;;;;;;;;;;;4.60;99.90;;;;;;8412000;28;19920;-65
2021/11/16 07:27:00;;;;;;;;;;;4.60;99.90;;;;;;8407327;28;20017;-65
2021/11/16 07:31:01;;;;;;;;;;;4.70;99.90;;;;;;8412986;28;19915;-65
2021/11/16 07:35:04;;;;;;;;;;;4.70;99.90;;;;;;8411379;28;19908;-65
2021/11/16 07:39:05;;;;;;;;;;;4.80;99.90;;;;;;8410937;28;19912;-65
2021/11/16 07:43:13;;;;;;;;;;;4.80;99.90;;;;;;8410947;28;20370;-65
2021/11/16 07:47:14;;;;;;;;;;;5.00;99.90;;;;;;8411290;28;19917;-65
2021/11/16 07:51:15;;;;;;;;;;;4.90;99.90;;;;;;8410961;28;19940;-65
2021/11/16 07:55:18;;;;;;;;;;;5.00;99.90;;;;;;8391896;28;20363;-65
2021/11/16 07:59:22;;;;;;;;;;;5.00;99.90;;;;;;8407741;28;19917;-65
2021/11/16 08:03:26;;;;;;;;;;;5.00;99.90;;;;;;8420277;28;20375;-65
2021/11/16 08:07:35;;;;;;;;;;;5.20;99.90;;;;;;8394477;28;19915;-65
2021/11/16 08:11:42;;;;;;;;;;;5.10;99.90;;;;;;8376146;28;20305;-65
2021/11/16 08:15:43;;;;;;;;;;;5.20;99.90;;;;;;8394883;28;19915;-65
2021/11/16 08:19:44;;;;;;;;;;;5.20;99.90;;;;;;8394110;28;20252;-65
2021/11/16 08:23:50;;;;;;;;;;;5.10;99.90;;;;;;8394267;28;19948;-65
2021/11/16 08:27:50;;;;;;;;;;;5.10;99.90;;;;;;8394182;28;19947;-65
2021/11/16 08:31:54;;;;;;;;;;;5.20;99.90;;;;;;8393771;28;19909;-65
2021/11/16 08:35:54;;;;;;;;;;;5.20;99.90;;;;;;8394329;28;19916;-65
2021/11/16 08:39:56;;;;;;;;;;;5.20;99.90;;;;;;8412714;28;20370;-65
2021/11/16 08:44:07;;;;;;;;;;;5.30;99.90;;;;;;8427104;28;19992;-65
2021/11/16 08:48:12;;;;;;;;;;;5.40;99.90;;;;;;8409019;28;19908;-64
2021/11/16 08:52:18;;;;;;;;;;;5.40;99.90;;;;;;8424315;28;20102;-64
2021/11/16 08:56:26;;;;;;;;;;;5.40;99.90;;;;;;8409809;28;20385;-64
2021/11/16 09:00:28;;;;;;;;;;;5.30;99.90;;;;;;8410067;28;20528;-64
2021/11/16 09:04:31;;;;;;;;;;;5.30;99.90;;;;;;8396668;28;19919;-64
2021/11/16 09:08:33;;;;;;;;;;;5.30;99.90;;;;;;8419702;28;20170;-64
2021/11/16 09:12:38;;;;;;;;;;;5.30;99.90;;;;;;8407506;28;19999;-64
2021/11/16 09:16:41;;;;;;;;;;;5.30;99.90;;;;;;8407153;28;19912;-65
2021/11/16 09:20:43;;;;;;;;;;;5.30;99.90;;;;;;8408558;28;19912;-64
2021/11/16 09:24:45;;;;;;;;;;;5.30;99.90;;;;;;8390474;28;19962;-64
2021/11/16 09:28:48;;;;;;;;;;;5.30;99.90;;;;;;8407209;28;19978;-65
2021/11/16 09:32:58;;;;;;;;;;;5.20;99.90;;;;;;8403648;28;19913;-64
2021/11/16 09:36:58;;;;;;;;;;;5.30;99.90;;;;;;8390164;28;19966;-65
2021/11/16 09:40:59;;;;;;;;;;;5.30;99.90;;;;;;8408537;28;19920;-64
2021/11/16 09:45:10;;;;;;;;;;;5.40;99.90;;;;;;8406161;28;19920;-64
2021/11/16 09:49:12;;;;;;;;;;;5.40;99.90;;;;;;8408667;28;19919;-65
2021/11/16 09:53:16;;;;;;;;;;;5.40;99.90;;;;;;8414350;28;20259;-64
2021/11/16 09:57:17;;;;;;;;;;;5.40;99.90;;;;;;8396142;28;20351;-64
2021/11/16 10:01:23;;;;;;;;;;;5.30;99.90;;;;;;8414550;28;19920;-64
2021/11/16 10:05:27;;;;;;;;;;;5.20;99.90;;;;;;8414214;28;19939;-64
2021/11/16 10:09:27;;;;;;;;;;;5.20;99.90;;;;;;8419431;28;19995;-65
2021/11/16 10:13:29;;;;;;;;;;;5.20;99.90;;;;;;8420426;28;19939;-64
2021/11/16 10:17:29;;;;;;;;;;;5.30;99.90;;;;;;8380408;28;19952;-64
2021/11/16 10:21:30;;;;;;;;;;;5.30;99.90;;;;;;8389700;28;19916;-64
2021/11/16 10:25:34;;;;;;;;;;;5.40;99.90;;;;;;8420595;28;19913;-64
2021/11/16 10:29:37;;;;;;;;;;;5.50;99.90;;;;;;8393152;28;19931;-65
2021/11/16 10:33:40;;;;;;;;;;;5.60;99.90;;;;;;8430834;28;19933;-65
2021/11/16 10:37:48;;;;;;;;;;;5.60;99.90;;;;;;8430678;28;19912;-65
2021/11/16 10:41:54;;;;;;;;;;;5.70;99.90;;;;;;8430386;28;20310;-64
2021/11/16 10:45:59;;;;;;;;;;;5.70;99.90;;;;;;8412603;28;19912;-64
2021/11/16 10:50:00;;;;;;;;;;;5.50;99.90;;;;;;8430042;28;19912;-64
2021/11/16 10:54:02;;;;;;;;;;;5.50;99.90;;;;;;8400971;28;19927;-65
2021/11/16 10:58:06;;;;;;;;;;;5.50;99.90;;;;;;8396840;28;19962;-65
2021/11/16 11:02:15;;;;;;;;;;;5.40;99.90;;;;;;8411431;28;20003;-65
2021/11/16 11:06:20;;;;;;;;;;;5.60;99.90;;;;;;8413066;28;19917;-65
2021/11/16 11:10:20;;;;;;;;;;;5.70;99.90;;;;;;8412170;28;19924;-65
2021/11/16 11:14:22;;;;;;;;;;;5.70;99.90;;;;;;8411812;28;20290;-65
2021/11/16 11:18:38;;;;;;;;;;;5.60;99.90;;;;;;8411959;28;20275;-65
2021/11/16 11:22:42;;;;;;;;;;;5.70;99.90;;;;;;8409231;28;19923;-65
2021/11/16 11:26:46;;;;;;;;;;;5.70;99.90;;;;;;8414045;28;20379;-65
2021/11/16 11:30:46;;;;;;;;;;;5.70;99.90;;;;;;8393241;28;19909;-65
2021/11/16 11:35:13;;;;;;;;;;;5.70;99.90;;;;;;8411252;28;19999;-65
2021/11/16 11:39:19;;;;;;;;;;;5.60;99.90;;;;;;8408076;28;20398;-65
2021/11/16 11:43:23;;;;;;;;;;;5.50;99.90;;;;;;8385205;28;19912;-65
2021/11/16 11:47:28;;;;;;;;;;;5.70;99.90;;;;;;8395010;28;19909;-64
2021/11/16 11:51:28;;;;;;;;;;;5.80;99.90;;;;;;8388361;28;19912;-64
2021/11/16 11:55:30;;;;;;;;;;;5.90;99.90;;;;;;8410264;28;20365;-64
2021/11/16 11:59:31;;;;;;;;;;;5.90;99.90;;;;;;8407253;28;19919;-64
2021/11/16 12:03:33;;;;;;;;;;;5.90;99.90;;;;;;8418727;28;19939;-65
2021/11/16 12:07:33;;;;;;;;;;;5.90;99.90;;;;;;8414306;28;19947;-65
2021/11/16 12:11:34;;;;;;;;;;;5.70;99.90;;;;;;8396405;28;19923;-65
2021/11/16 12:15:53;;;;;;;;;;;5.80;99.90;;;;;;8378692;28;20385;-64
2021/11/16 12:19:54;;;;;;;;;;;5.70;99.90;;;;;;8407941;28;19990;-64
2021/11/16 12:23:57;;;;;;;;;;;5.70;99.90;;;;;;8427177;28;19915;-65
2021/11/16 12:27:59;;;;;;;;;;;5.70;99.90;;;;;;8395278;28;19995;-65
2021/11/16 12:32:23;;;;;;;;;;;5.80;99.90;;;;;;8393899;28;19912;-64
2021/11/16 12:36:32;;;;;;;;;;;5.50;99.90;;;;;;8392262;28;19912;-65
2021/11/16 12:40:33;;;;;;;;;;;5.60;99.90;;;;;;8393255;28;20007;-65
2021/11/16 12:44:43;;;;;;;;;;;5.60;99.90;;;;;;8392967;28;19915;-64
2021/11/16 12:48:51;;;;;;;;;;;5.70;99.90;;;;;;8390325;28;20417;-64
2021/11/16 12:52:53;;;;;;;;;;;5.70;99.90;;;;;;8393148;28;19909;-64
2021/11/16 12:56:53;;;;;;;;;;;5.60;99.90;;;;;;8396697;28;19908;-65
2021/11/16 13:00:54;;;;;;;;;;;5.50;99.90;;;;;;8426063;28;19935;-65
2021/11/16 13:04:57;;;;;;;;;;;5.50;99.90;;;;;;8413302;28;19912;-64
2021/11/16 13:08:57;;;;;;;;;;;5.40;99.90;;;;;;8403713;28;19912;-64
2021/11/16 13:13:03;;;;;;;;;;;5.50;99.90;;;;;;8431523;22;19924;-65
2021/11/16 13:17:22;;;;;;;;;;;5.20;99.90;;;;;;8411987;28;19921;-64
2021/11/16 13:21:24;;;;;;;;;;;5.20;99.90;;;;;;8415706;28;20352;-65
2021/11/16 13:25:44;;;;;;;;;;;5.20;99.90;;;;;;8401625;28;19973;-65
2021/11/16 13:29:45;;;;;;;;;;;5.30;99.90;;;;;;8424488;28;19919;-65
2021/11/16 13:33:45;;;;;;;;;;;5.30;99.90;;;;;;8425630;28;19908;-65
2021/11/16 13:37:53;;;;;;;;;;;5.40;99.90;;;;;;8425762;28;20370;-65
2021/11/16 13:42:08;;;;;;;;;;;5.40;99.90;;;;;;8430856;28;19920;-65
2021/11/16 13:46:15;;;;;;;;;;;5.30;99.90;;;;;;8421485;28;20263;-65
2021/11/16 13:50:20;;;;;;;;;;;5.30;99.90;;;;;;8424560;28;20007;-65
2021/11/16 13:54:21;;;;;;;;;;;5.30;99.90;;;;;;8416896;28;19912;-65
2021/11/16 13:58:25;;;;;;;;;;;5.20;99.90;;;;;;8418890;28;19922;-65
2021/11/16 14:02:26;;;;;;;;;;;5.10;99.90;;;;;;8432374;28;19924;-65
2021/11/16 14:06:27;;;;;;;;;;;5.00;99.90;;;;;;8432343;28;19998;-65
2021/11/16 14:10:28;;;;;;;;;;;5.00;99.90;;;;;;8402742;28;19920;-66
2021/11/16 14:14:35;;;;;;;;;;;5.10;99.90;;;;;;8428360;28;19965;-66
2021/11/16 14:18:36;;;;;;;;;;;5.20;99.90;;;;;;8406900;28;19939;-65
2021/11/16 14:22:38;;;;;;;;;;;5.20;99.90;;;;;;8416634;28;19962;-65
2021/11/16 14:26:40;;;;;;;;;;;5.10;99.90;;;;;;8429758;28;19935;-65
2021/11/16 14:30:40;;;;;;;;;;;5.10;99.90;;;;;;8424295;28;20268;-65
2021/11/16 14:34:41;;;;;;;;;;;5.10;99.90;;;;;;8403615;28;19960;-65
2021/11/16 14:38:44;;;;;;;;;;;5.10;99.90;;;;;;8416170;28;19912;-65
2021/11/16 14:42:45;;;;;;;;;;;5.10;99.90;;;;;;8412793;28;19931;-65
2021/11/16 14:46:53;;;;;;;;;;;5.10;99.90;;;;;;8428454;28;19912;-64
2021/11/16 14:50:58;;;;;;;;;;;5.00;99.90;;;;;;8428574;28;19912;-65
2021/11/16 14:55:04;;;;;;;;;;;5.10;99.90;;;;;;8428596;28;19912;-66
2021/11/16 14:59:13;;;;;;;;;;;5.10;99.90;;;;;;8404308;28;20090;-65
2021/11/16 15:03:16;;;;;;;;;;;5.10;99.90;;;;;;8400935;28;20317;-65
2021/11/16 15:07:18;;;;;;;;;;;5.00;99.90;;;;;;8421413;28;19916;-65
2021/11/16 15:11:20;;;;;;;;;;;4.90;99.90;;;;;;8394027;28;19916;-65
2021/11/16 15:15:31;;;;;;;;;;;4.90;99.90;;;;;;8423274;28;19989;-65
2021/11/16 15:19:32;;;;;;;;;;;4.90;99.90;;;;;;8419821;28;19926;-65
2021/11/16 15:23:39;;;;;;;;;;;4.80;99.90;;;;;;8426513;28;20010;-67
2021/11/16 15:27:55;;;;;;;;;;;4.80;99.90;;;;;;8423076;28;21381;-66
2021/11/16 15:31:56;;;;;;;;;;;4.70;99.90;;;;;;8423126;28;19912;-66
2021/11/16 15:36:01;;;;;;;;;;;4.80;99.90;;;;;;8426798;28;19916;-67
2021/11/16 15:40:13;;;;;;;;;;;4.90;99.90;;;;;;8408761;28;19957;-67
2021/11/16 15:44:31;;;;;;;;;;;4.90;99.90;;;;;;8409031;28;19912;-66
2021/11/16 15:48:44;;;;;;;;;;;5.00;99.90;;;;;;8425269;28;19991;-67
2021/11/16 15:53:18;;;;;;;;;;;4.90;99.90;;;;;;8424831;28;19926;-67
2021/11/16 15:57:29;;;;;;;;;;;4.80;99.90;;;;;;8406459;28;19942;-67
2021/11/16 16:01:33;;;;;;;;;;;4.70;99.90;;;;;;8423865;28;19924;-68
2021/11/16 16:05:34;;;;;;;;;;;4.70;99.90;;;;;;8427058;28;19964;-67
2021/11/16 16:09:35;;;;;;;;;;;4.80;99.90;;;;;;8426038;28;19916;-66
2021/11/16 16:13:36;;;;;;;;;;;4.80;99.90;;;;;;8417254;28;19923;-66
2021/11/16 16:17:36;;;;;;;;;;;4.70;99.90;;;;;;8418682;28;19934;-66
2021/11/16 16:21:37;;;;;;;;;;;4.70;99.90;;;;;;8421815;28;19919;-64
2021/11/16 16:25:37;;;;;;;;;;;4.70;99.90;;;;;;8402538;28;19916;-65
2021/11/16 16:29:38;;;;;;;;;;;4.70;99.90;;;;;;8422896;28;20037;-66
2021/11/16 16:33:38;;;;;;;;;;;4.80;99.90;;;;;;8411149;28;19943;-65
2021/11/16 16:37:39;;;;;;;;;;;4.80;99.90;;;;;;8424171;28;20006;-64
2021/11/16 16:41:40;;;;;;;;;;;4.70;99.90;;;;;;8424723;28;19913;-65
2021/11/16 16:45:40;;;;;;;;;;;4.60;99.90;;;;;;8425081;28;19912;-65
2021/11/16 16:49:41;;;;;;;;;;;4.70;99.90;;;;;;8421596;28;19912;-65
2021/11/16 16:53:42;;;;;;;;;;;4.70;99.90;;;;;;8426269;28;19918;-65
2021/11/16 16:57:47;;;;;;;;;;;4.60;99.90;;;;;;8414939;28;19908;-65
2021/11/16 17:01:51;;;;;;;;;;;4.70;99.90;;;;;;8405737;28;19924;-65
2021/11/16 17:05:53;;;;;;;;;;;4.60;99.90;;;;;;8410945;28;19928;-65
2021/11/16 17:09:54;;;;;;;;;;;4.80;99.90;;;;;;8402414;28;19931;-64
2021/11/16 17:13:57;;;;;;;;;;;4.80;99.90;;;;;;8407090;28;19924;-64
2021/11/16 17:17:58;;;;;;;;;;;4.70;99.90;;;;;;8417295;28;19916;-65
2021/11/16 17:22:01;;;;;;;;;;;4.60;99.90;;;;;;8395952;28;19924;-64
2021/11/16 17:26:02;;;;;;;;;;;4.70;99.90;;;;;;8399370;28;19916;-64
2021/11/16 17:30:03;;;;;;;;;;;4.70;99.90;;;;;;8394826;28;19916;-63
2021/11/16 17:34:04;;;;;;;;;;;4.60;99.90;;;;;;8410982;28;19913;-64
2021/11/16 17:38:05;;;;;;;;;;;4.80;99.90;;;;;;8414446;28;19962;-65
2021/11/16 17:42:06;;;;;;;;;;;4.70;99.90;;;;;;8396411;28;19992;-64
2021/11/16 17:46:07;;;;;;;;;;;4.60;99.90;;;;;;8408988;28;19916;-63
2021/11/16 17:50:07;;;;;;;;;;;4.80;99.90;;;;;;8420852;28;20091;-63
2021/11/16 17:54:09;;;;;;;;;;;4.70;99.90;;;;;;8420050;28;20370;-63
2021/11/16 17:58:10;;;;;;;;;;;4.70;99.90;;;;;;8405614;28;19916;-63
2021/11/16 18:02:17;;;;;;;;;;;4.80;99.90;;;;;;8388182;28;19916;-63
2021/11/16 18:10:24;;;;;;;;;;;4.60;99.90;;;;;;8393583;28;19916;-63
2021/11/16 18:14:25;;;;;;;;;;;4.60;99.90;;;;;;8394336;28;19908;-64
2021/11/16 18:18:25;;;;;;;;;;;4.60;99.90;;;;;;8393839;28;19912;-63
2021/11/16 18:22:26;;;;;;;;;;;4.60;99.90;;;;;;8393590;28;19916;-63
2021/11/16 18:26:28;;;;;;;;;;;4.70;99.90;;;;;;8398754;28;19938;-63
2021/11/16 18:30:41;;;;;;;;;;;4.70;99.90;;;;;;8418283;28;20686;-63
2021/11/16 18:34:42;;;;;;;;;;;4.60;99.90;;;;;;8426922;28;19912;-64
2021/11/16 18:38:49;;;;;;;;;;;4.70;99.90;;;;;;8408549;28;19908;-63
2021/11/16 18:47:13;;;;;;;;;;;4.60;99.90;;;;;;8421458;28;20341;-64
2021/11/16 18:51:14;;;;;;;;;;;4.60;99.90;;;;;;8392555;28;19927;-63
2021/11/16 18:55:27;;;;;;;;;;;4.60;99.90;;;;;;8408355;28;19916;-63
2021/11/16 18:59:29;;;;;;;;;;;4.50;99.90;;;;;;8407406;28;19916;-63
2021/11/16 19:03:29;;;;;;;;;;;4.60;99.90;;;;;;8400030;28;19920;-63
2021/11/16 19:07:30;;;;;;;;;;;4.70;99.90;;;;;;8415753;28;19912;-63
2021/11/16 19:11:31;;;;;;;;;;;4.60;99.90;;;;;;8408552;28;19929;-63
2021/11/16 19:15:31;;;;;;;;;;;4.50;99.90;;;;;;8409086;28;19977;-64
2021/11/16 19:19:33;;;;;;;;;;;4.50;99.90;;;;;;8415651;28;19989;-63
2021/11/16 19:23:36;;;;;;;;;;;4.50;99.90;;;;;;8424760;28;19923;-63
2021/11/16 19:27:46;;;;;;;;;;;4.50;99.90;;;;;;8417093;28;19916;-63
2021/11/16 19:31:46;;;;;;;;;;;4.50;99.90;;;;;;8403649;28;19923;-64
2021/11/16 19:35:49;;;;;;;;;;;4.60;99.90;;;;;;8425460;28;19911;-64
2021/11/16 19:40:00;;;;;;;;;;;4.50;99.90;;;;;;8423618;28;19908;-64
2021/11/16 19:44:01;;;;;;;;;;;4.50;99.90;;;;;;8406296;28;19919;-63
2021/11/16 19:48:02;;;;;;;;;;;4.70;99.90;;;;;;8425099;28;20419;-63
2021/11/16 19:52:03;;;;;;;;;;;4.70;99.90;;;;;;8415044;28;19966;-64
2021/11/16 19:56:03;;;;;;;;;;;4.70;99.90;;;;;;8393028;28;19916;-63
2021/11/16 20:00:06;;;;;;;;;;;4.70;99.90;;;;;;8409408;28;19919;-63
2021/11/16 20:04:09;;;;;;;;;;;4.70;99.90;;;;;;8418239;28;19920;-64
2021/11/16 20:08:09;;;;;;;;;;;4.70;99.90;;;;;;8422011;28;20597;-63
2021/11/16 20:12:13;;;;;;;;;;;4.80;99.90;;;;;;8422169;28;19920;-63
2021/11/16 20:16:16;;;;;;;;;;;4.80;99.90;;;;;;8422064;28;19965;-63
2021/11/16 20:20:17;;;;;;;;;;;4.90;99.90;;;;;;8421209;28;19912;-63
2021/11/16 20:24:18;;;;;;;;;;;4.60;99.90;;;;;;8422262;28;20473;-63
2021/11/16 20:28:26;;;;;;;;;;;4.60;99.90;;;;;;8408607;28;19913;-63
2021/11/16 20:32:31;;;;;;;;;;;4.70;99.90;;;;;;8405803;28;19916;-63
2021/11/16 20:36:33;;;;;;;;;;;4.60;99.90;;;;;;8413320;28;20382;-63
2021/11/16 21:02:02;;;;;;;;;;;4.60;99.90;;;;;;8410886;28;20018;-63
2021/11/16 21:06:05;;;;;;;;;;;4.70;99.90;;;;;;8400142;28;19920;-64
2021/11/16 21:10:07;;;;;;;;;;;4.80;99.90;;;;;;8416683;28;19916;-64
2021/11/16 21:14:08;;;;;;;;;;;4.80;99.90;;;;;;8398690;28;19924;-64
2021/11/16 21:18:08;;;;;;;;;;;4.70;99.90;;;;;;8419408;28;20370;-64
2021/11/16 21:22:09;;;;;;;;;;;4.80;99.90;;;;;;8412714;28;19916;-64
2021/11/16 21:26:10;;;;;;;;;;;4.60;99.90;;;;;;8401966;28;19915;-63
2021/11/16 21:30:12;;;;;;;;;;;4.70;99.90;;;;;;8402343;28;19919;-63
2021/11/16 21:34:13;;;;;;;;;;;4.80;99.90;;;;;;8419433;22;19912;-65
2021/11/16 21:38:14;;;;;;;;;;;4.70;99.90;;;;;;8407080;28;19928;-64
2021/11/16 21:42:15;;;;;;;;;;;4.70;99.90;;;;;;8391551;28;19924;-64
2021/11/16 21:46:15;;;;;;;;;;;4.60;99.90;;;;;;8394758;28;19912;-64
2021/11/16 21:50:16;;;;;;;;;;;4.70;99.90;;;;;;8380722;28;19916;-64
2021/11/16 21:54:17;;;;;;;;;;;4.70;99.90;;;;;;8398892;28;19912;-64
2021/11/16 21:58:20;;;;;;;;;;;4.70;99.90;;;;;;8414841;28;20304;-64
2021/11/16 22:02:20;;;;;;;;;;;4.80;99.90;;;;;;8430854;28;19915;-65
2021/11/16 22:06:24;;;;;;;;;;;4.70;99.90;;;;;;8431887;28;20384;-64
2021/11/16 22:14:36;;;;;;;;;;;4.70;99.90;;;;;;8431549;28;20298;-64
2021/11/16 22:18:37;;;;;;;;;;;4.60;99.90;;;;;;8431884;28;19915;-64
2021/11/16 22:22:43;;;;;;;;;;;4.60;99.90;;;;;;8431586;28;20290;-64
2021/11/16 22:26:44;;;;;;;;;;;4.50;99.90;;;;;;8409410;28;20370;-64
2021/11/16 22:30:45;;;;;;;;;;;4.50;99.90;;;;;;8397504;28;19970;-64
2021/11/16 22:34:49;;;;;;;;;;;4.60;99.90;;;;;;8397226;28;20418;-64
2021/11/16 22:38:51;;;;;;;;;;;4.60;99.90;;;;;;8427404;28;19913;-64
2021/11/16 22:42:52;;;;;;;;;;;4.60;99.90;;;;;;8430911;28;20011;-64
2021/11/16 22:46:55;;;;;;;;;;;4.60;99.90;;;;;;8430468;28;19908;-64
2021/11/16 22:50:55;;;;;;;;;;;4.50;99.90;;;;;;8430686;28;19916;-64
2021/11/16 22:54:56;;;;;;;;;;;4.60;99.90;;;;;;8430436;28;20344;-64
2021/11/16 22:59:03;;;;;;;;;;;4.50;99.90;;;;;;8428832;28;19908;-64
2021/11/16 23:03:51;;;;;;;;;;;4.60;99.90;;;;;;8430323;28;20434;-64
2021/11/16 23:13:58;;;;;;;;;;;4.70;99.90;;;;;;8429754;28;19916;-64
